createdAt,value
2023-04-24T00:00:00.252Z,100.00
2023-04-24T00:02:27.933Z,100.00
2023-04-24T00:04:58.516Z,100.00
2023-04-24T00:07:26.271Z,100.00
2023-04-24T00:09:53.761Z,100.00
2023-04-24T00:12:22.668Z,100.00
2023-04-24T00:14:50.499Z,100.00
2023-04-24T00:17:20.941Z,100.00
2023-04-24T00:19:48.478Z,100.00
2023-04-24T00:22:16.180Z,100.00
2023-04-24T00:24:43.742Z,100.00
2023-04-24T00:27:11.311Z,100.00
2023-04-24T00:29:40.427Z,100.00
2023-04-24T00:32:08.189Z,100.00
2023-04-24T00:34:35.741Z,100.00
2023-04-24T00:37:03.244Z,100.00
2023-04-24T00:39:30.834Z,100.00
2023-04-24T00:41:58.769Z,100.00
2023-04-24T00:44:26.459Z,100.00
2023-04-24T00:46:56.363Z,100.00
2023-04-24T00:49:23.997Z,100.00
2023-04-24T00:51:52.214Z,100.00
2023-04-24T00:54:19.997Z,100.00
2023-04-24T00:56:47.540Z,100.00
2023-04-24T00:59:15.246Z,100.00
2023-04-24T01:01:43.736Z,100.00
2023-04-24T01:04:13.374Z,100.00
2023-04-24T01:06:41.337Z,100.00
2023-04-24T01:09:10.207Z,100.00
2023-04-24T01:11:37.804Z,100.00
2023-04-24T01:14:06.292Z,100.00
2023-04-24T01:16:34.386Z,100.00
2023-04-24T01:19:02.328Z,100.00
2023-04-24T01:21:31.206Z,100.00
2023-04-24T01:24:00.125Z,100.00
2023-04-24T01:26:27.719Z,100.00
2023-04-24T01:28:55.281Z,100.00
2023-04-24T01:31:22.885Z,100.00
2023-04-24T01:33:50.479Z,100.00
2023-04-24T01:36:18.014Z,100.00
2023-04-24T01:38:45.852Z,100.00
2023-04-24T01:41:14.760Z,100.00
2023-04-24T01:43:42.369Z,100.00
2023-04-24T01:46:10.198Z,100.00
2023-04-24T01:48:37.792Z,100.00
2023-04-24T01:51:05.350Z,100.00
2023-04-24T01:53:32.911Z,100.00
2023-04-24T01:56:00.498Z,100.00
2023-04-24T01:58:29.601Z,100.00
2023-04-24T02:00:58.120Z,100.00
2023-04-24T02:03:25.835Z,100.00
2023-04-24T02:05:53.421Z,100.00
2023-04-24T02:08:20.961Z,100.00
2023-04-24T02:10:50.743Z,100.00
2023-04-24T02:13:18.300Z,100.00
2023-04-24T02:15:47.175Z,100.00
2023-04-24T02:18:14.764Z,100.00
2023-04-24T02:20:48.190Z,100.00
2023-04-24T02:23:16.224Z,100.00
2023-04-24T02:25:43.784Z,100.00
2023-04-24T02:28:11.366Z,100.00
2023-04-24T02:30:38.914Z,100.00
2023-04-24T02:33:08.321Z,100.00
2023-04-24T02:35:36.046Z,100.00
2023-04-24T02:38:04.157Z,100.00
2023-04-24T02:40:31.730Z,100.00
2023-04-24T02:42:59.421Z,100.00
2023-04-24T02:45:27.043Z,100.00
2023-04-24T02:47:55.076Z,100.00
2023-04-24T02:50:27.927Z,100.00
2023-04-24T02:52:55.595Z,100.00
2023-04-24T02:55:23.237Z,100.00
2023-04-24T02:57:50.994Z,100.00
2023-04-24T03:00:18.707Z,100.00
2023-04-24T03:02:46.667Z,100.00
2023-04-24T03:05:14.354Z,100.00
2023-04-24T03:07:43.288Z,100.00
2023-04-24T03:10:11.119Z,100.00
2023-04-24T03:12:38.694Z,100.00
2023-04-24T03:15:06.742Z,100.00
2023-04-24T03:17:34.452Z,100.00
2023-04-24T03:20:02.043Z,100.00
2023-04-24T03:22:30.771Z,100.00
2023-04-24T03:24:59.748Z,100.00
2023-04-24T03:27:27.352Z,100.00
2023-04-24T03:29:57.759Z,100.00
2023-04-24T03:32:33.358Z,100.00
2023-04-24T03:35:01.930Z,100.00
2023-04-24T03:37:30.018Z,100.00
2023-04-24T03:40:12.706Z,100.00
2023-04-24T03:42:40.351Z,100.00
2023-04-24T03:45:08.517Z,100.00
2023-04-24T03:47:38.728Z,100.00
2023-04-24T03:50:07.762Z,100.00
2023-04-24T03:52:36.399Z,100.00
2023-04-24T03:55:04.995Z,100.00
2023-04-24T03:57:40.166Z,100.00
2023-04-24T04:00:15.333Z,100.00
2023-04-24T04:02:45.131Z,100.00
2023-04-24T04:05:12.961Z,100.00
2023-04-24T04:07:40.517Z,100.00
2023-04-24T04:10:09.085Z,100.00
2023-04-24T04:12:39.840Z,100.00
2023-04-24T04:15:07.985Z,100.00
2023-04-24T04:17:35.933Z,100.00
2023-04-24T04:20:10.385Z,100.00
2023-04-24T04:22:39.004Z,100.00
2023-04-24T04:25:10.136Z,100.00
2023-04-24T04:27:37.762Z,100.00
2023-04-24T04:30:28.462Z,100.00
2023-04-24T04:33:17.584Z,100.00
2023-04-24T04:35:49.775Z,100.00
2023-04-24T04:38:17.746Z,100.00
2023-04-24T04:40:54.276Z,100.00
2023-04-24T04:43:24.090Z,100.00
2023-04-24T04:45:55.927Z,100.00
2023-04-24T04:48:46.784Z,100.00
2023-04-24T04:51:14.567Z,100.00
2023-04-24T04:53:42.192Z,100.00
2023-04-24T04:56:09.900Z,100.00
2023-04-24T04:58:46.808Z,100.00
2023-04-24T05:01:18.686Z,100.00
2023-04-24T05:03:48.673Z,100.00
2023-04-24T05:06:18.101Z,100.00
2023-04-24T05:08:46.736Z,100.00
2023-04-24T05:11:30.749Z,100.00
2023-04-24T05:13:59.236Z,100.00
2023-04-24T05:16:36.154Z,100.00
2023-04-24T05:19:03.752Z,100.00
2023-04-24T05:21:36.409Z,100.00
2023-04-24T05:24:04.269Z,100.00
2023-04-24T05:26:47.438Z,100.00
2023-04-24T05:29:17.178Z,100.00
2023-04-24T05:31:46.290Z,100.00
2023-04-24T05:34:14.174Z,100.00
2023-04-24T05:36:44.982Z,100.00
2023-04-24T05:39:12.779Z,100.00
2023-04-24T05:41:40.357Z,100.00
2023-04-24T05:44:07.956Z,100.00
2023-04-24T05:46:35.648Z,100.00
2023-04-24T05:49:04.626Z,100.00
2023-04-24T05:51:34.053Z,100.00
2023-04-24T05:54:02.338Z,100.00
2023-04-24T05:56:30.127Z,100.00
2023-04-24T05:58:58.868Z,100.00
2023-04-24T06:01:26.473Z,100.00
2023-04-24T06:04:06.009Z,100.00
2023-04-24T06:06:33.628Z,100.00
2023-04-24T06:09:01.232Z,100.00
2023-04-24T06:11:29.899Z,100.00
2023-04-24T06:13:57.743Z,100.00
2023-04-24T06:16:41.018Z,100.00
2023-04-24T06:19:30.147Z,100.00
2023-04-24T06:21:57.890Z,100.00
2023-04-24T06:24:29.041Z,100.00
2023-04-24T06:26:57.740Z,100.00
2023-04-24T06:29:25.353Z,100.00
2023-04-24T06:31:52.925Z,100.00
2023-04-24T06:34:20.553Z,100.00
2023-04-24T06:36:49.922Z,100.00
2023-04-24T06:39:17.462Z,100.00
2023-04-24T06:41:45.011Z,100.00
2023-04-24T06:44:20.246Z,100.00
2023-04-24T06:46:47.763Z,100.00
2023-04-24T06:49:17.098Z,100.00
2023-04-24T06:51:44.832Z,100.00
2023-04-24T06:54:13.820Z,100.00
2023-04-24T06:56:41.352Z,100.00
2023-04-24T06:59:08.906Z,100.00
2023-04-24T07:01:36.515Z,100.00
2023-04-24T07:04:04.186Z,100.00
2023-04-24T07:06:32.836Z,100.00
2023-04-24T07:09:00.842Z,100.00
2023-04-24T07:11:30.321Z,100.00
2023-04-24T07:13:57.907Z,100.00
2023-04-24T07:16:25.495Z,100.00
2023-04-24T07:18:53.049Z,100.00
2023-04-24T07:21:20.838Z,100.00
2023-04-24T07:23:48.478Z,100.00
2023-04-24T07:26:16.453Z,100.00
2023-04-24T07:28:45.335Z,100.00
2023-04-24T07:31:13.171Z,100.00
2023-04-24T07:33:40.781Z,100.00
2023-04-24T07:36:08.377Z,100.00
2023-04-24T07:38:36.033Z,100.00
2023-04-24T07:41:03.709Z,100.00
2023-04-24T07:43:31.411Z,100.00
2023-04-24T07:46:00.321Z,100.00
2023-04-24T07:48:27.839Z,100.00
2023-04-24T07:50:55.520Z,100.00
2023-04-24T07:53:23.054Z,100.00
2023-04-24T07:55:50.607Z,100.00
2023-04-24T07:58:18.155Z,100.00
2023-04-24T08:00:45.805Z,100.00
2023-04-24T08:03:14.848Z,100.00
2023-04-24T08:05:43.025Z,100.00
2023-04-24T08:08:10.592Z,100.00
2023-04-24T08:10:38.160Z,100.00
2023-04-24T08:13:05.675Z,100.00
2023-04-24T08:15:33.226Z,100.00
2023-04-24T08:18:00.838Z,100.00
2023-04-24T08:20:29.759Z,100.00
2023-04-24T08:22:57.536Z,100.00
2023-04-24T08:25:25.774Z,100.00
2023-04-24T08:27:53.323Z,100.00
2023-04-24T08:30:21.454Z,100.00
2023-04-24T08:32:49.522Z,100.00
2023-04-24T08:35:17.158Z,100.00
2023-04-24T08:37:46.222Z,100.00
2023-04-24T08:40:14.778Z,100.00
2023-04-24T08:42:43.896Z,100.00
2023-04-24T08:45:11.967Z,100.00
2023-04-24T08:47:39.816Z,100.00
2023-04-24T08:50:08.280Z,100.00
2023-04-24T08:52:35.854Z,100.00
2023-04-24T08:55:04.945Z,100.00
2023-04-24T08:57:32.593Z,100.00
2023-04-24T09:00:00.273Z,100.00
2023-04-24T09:02:28.073Z,100.00
2023-04-24T09:04:55.798Z,100.00
2023-04-24T09:07:23.707Z,100.00
2023-04-24T09:09:51.384Z,100.00
2023-04-24T09:12:20.522Z,100.00
2023-04-24T09:14:48.173Z,100.00
2023-04-24T09:17:15.806Z,100.00
2023-04-24T09:19:43.734Z,100.00
2023-04-24T09:22:12.242Z,100.00
2023-04-24T09:24:39.956Z,100.00
2023-04-24T09:27:08.902Z,100.00
2023-04-24T09:29:39.027Z,100.00
2023-04-24T09:32:19.882Z,100.00
2023-04-24T09:34:47.503Z,100.00
2023-04-24T09:37:16.934Z,100.00
2023-04-24T09:39:44.673Z,100.00
2023-04-24T09:42:12.447Z,100.00
2023-04-24T09:44:42.584Z,100.00
2023-04-24T09:47:10.909Z,100.00
2023-04-24T09:49:40.246Z,100.00
2023-04-24T09:52:08.248Z,100.00
2023-04-24T09:54:37.762Z,100.00
2023-04-24T09:57:05.550Z,100.00
2023-04-24T09:59:33.677Z,100.00
2023-04-24T10:02:05.144Z,100.00
2023-04-24T10:04:32.847Z,100.00
2023-04-24T10:07:02.096Z,100.00
2023-04-24T10:09:30.726Z,100.00
2023-04-24T10:11:58.268Z,100.00
2023-04-24T10:14:26.846Z,100.00
2023-04-24T10:16:55.645Z,100.00
2023-04-24T10:19:24.726Z,100.00
2023-04-24T10:21:52.313Z,100.00
2023-04-24T10:24:21.484Z,100.00
2023-04-24T10:26:52.071Z,100.00
2023-04-24T10:29:20.021Z,100.00
2023-04-24T10:31:49.434Z,100.00
2023-04-24T10:34:18.385Z,100.00
2023-04-24T10:36:48.842Z,97.04
2023-04-24T10:39:18.121Z,94.41
2023-04-24T10:41:47.409Z,94.11
2023-04-24T10:44:17.186Z,94.42
2023-04-24T10:46:45.168Z,94.34
2023-04-24T10:49:12.936Z,94.13
2023-04-24T10:51:48.977Z,94.24
2023-04-24T10:54:25.930Z,94.65
2023-04-24T10:56:53.542Z,94.89
2023-04-24T10:59:30.318Z,92.15
2023-04-24T11:01:57.996Z,94.96
2023-04-24T11:04:31.729Z,96.61
2023-04-24T11:07:02.799Z,96.37
2023-04-24T11:09:30.598Z,96.58
2023-04-24T11:12:05.140Z,94.85
2023-04-24T11:14:32.723Z,95.92
2023-04-24T11:17:02.334Z,97.80
2023-04-24T11:19:30.794Z,94.79
2023-04-24T11:22:11.628Z,94.46
2023-04-24T11:24:40.727Z,94.29
2023-04-24T11:27:22.396Z,89.60
2023-04-24T11:29:52.762Z,87.57
2023-04-24T11:32:21.399Z,86.95
2023-04-24T11:34:52.290Z,83.16
2023-04-24T11:37:21.162Z,83.61
2023-04-24T11:39:48.925Z,81.78
2023-04-24T11:42:16.774Z,82.53
2023-04-24T11:44:44.738Z,82.49
2023-04-24T11:47:15.181Z,81.77
2023-04-24T11:49:45.022Z,82.55
2023-04-24T11:52:14.914Z,79.01
2023-04-24T11:54:50.049Z,78.63
2023-04-24T11:57:21.537Z,80.64
2023-04-24T11:59:50.385Z,78.90
2023-04-24T12:02:28.198Z,80.84
2023-04-24T12:04:56.425Z,79.62
2023-04-24T12:07:27.520Z,81.87
2023-04-24T12:10:00.742Z,80.39
2023-04-24T12:12:29.175Z,83.78
2023-04-24T12:14:57.401Z,81.41
2023-04-24T12:17:29.516Z,82.91
2023-04-24T12:20:02.000Z,81.54
2023-04-24T12:22:29.881Z,80.33
2023-04-24T12:25:01.687Z,77.04
2023-04-24T12:27:31.277Z,75.35
2023-04-24T12:29:59.068Z,75.39
2023-04-24T12:32:29.113Z,74.67
2023-04-24T12:34:59.851Z,77.86
2023-04-24T12:37:27.896Z,78.47
2023-04-24T12:40:10.914Z,77.65
2023-04-24T12:42:43.593Z,79.50
2023-04-24T12:45:14.220Z,80.43
2023-04-24T12:47:42.000Z,82.11
2023-04-24T12:50:10.065Z,84.98
2023-04-24T12:52:37.984Z,86.01
2023-04-24T12:55:09.089Z,86.78
2023-04-24T12:57:39.155Z,87.73
2023-04-24T13:00:07.539Z,87.52
2023-04-24T13:02:35.517Z,85.26
2023-04-24T13:05:06.458Z,83.13
2023-04-24T13:07:34.091Z,82.15
2023-04-24T13:10:02.039Z,82.21
2023-04-24T13:12:31.232Z,82.83
2023-04-24T13:14:59.798Z,82.28
2023-04-24T13:17:27.732Z,83.03
2023-04-24T13:19:55.980Z,83.15
2023-04-24T13:22:26.336Z,83.89
2023-04-24T13:24:57.367Z,86.09
2023-04-24T13:27:27.948Z,84.91
2023-04-24T13:29:58.558Z,84.91
2023-04-24T13:32:26.323Z,85.29
2023-04-24T13:34:54.190Z,87.38
2023-04-24T13:37:22.162Z,85.07
2023-04-24T13:39:50.133Z,87.22
2023-04-24T13:42:19.209Z,87.30
2023-04-24T13:44:50.367Z,86.41
2023-04-24T13:47:19.520Z,86.88
2023-04-24T13:49:55.418Z,87.87
2023-04-24T13:52:23.156Z,87.68
2023-04-24T13:54:50.754Z,86.39
2023-04-24T13:57:18.592Z,85.18
2023-04-24T13:59:46.684Z,86.75
2023-04-24T14:02:14.578Z,86.41
2023-04-24T14:04:46.344Z,86.96
2023-04-24T14:07:14.413Z,88.02
2023-04-24T14:09:41.986Z,88.02
2023-04-24T14:12:09.786Z,88.07
2023-04-24T14:14:37.357Z,87.62
2023-04-24T14:17:05.097Z,88.17
2023-04-24T14:19:34.878Z,89.36
2023-04-24T14:22:03.889Z,88.76
2023-04-24T14:24:34.296Z,88.21
2023-04-24T14:27:02.360Z,87.51
2023-04-24T14:29:29.982Z,87.48
2023-04-24T14:31:57.606Z,85.12
2023-04-24T14:34:25.225Z,80.27
2023-04-24T14:36:54.877Z,79.79
2023-04-24T14:39:23.799Z,76.89
2023-04-24T14:41:51.341Z,79.58
2023-04-24T14:44:19.600Z,81.30
2023-04-24T14:46:47.364Z,81.01
2023-04-24T14:49:18.145Z,82.10
2023-04-24T14:51:45.715Z,82.36
2023-04-24T14:54:13.544Z,81.51
2023-04-24T14:56:44.896Z,82.16
2023-04-24T14:59:12.445Z,79.62
2023-04-24T15:01:40.067Z,79.49
2023-04-24T15:04:08.294Z,79.60
2023-04-24T15:06:35.927Z,78.03
2023-04-24T15:09:04.464Z,77.15
2023-04-24T15:11:35.058Z,76.22
2023-04-24T15:14:12.236Z,75.48
2023-04-24T15:16:40.434Z,77.27
2023-04-24T15:19:08.660Z,78.07
2023-04-24T15:21:37.242Z,76.71
2023-04-24T15:24:05.111Z,79.22
2023-04-24T15:26:32.797Z,79.00
2023-04-24T15:29:00.430Z,79.30
2023-04-24T15:31:29.390Z,81.48
2023-04-24T15:33:56.933Z,81.93
2023-04-24T15:36:24.540Z,82.49
2023-04-24T15:38:52.131Z,83.80
2023-04-24T15:41:19.965Z,86.74
2023-04-24T15:43:47.923Z,87.20
2023-04-24T15:46:15.764Z,89.60
2023-04-24T15:48:45.520Z,90.47
2023-04-24T15:51:13.275Z,92.22
2023-04-24T15:53:40.861Z,92.97
2023-04-24T15:56:08.859Z,93.46
2023-04-24T15:58:36.861Z,93.93
2023-04-24T16:01:04.687Z,94.62
2023-04-24T16:03:32.551Z,96.47
2023-04-24T16:06:01.729Z,96.08
2023-04-24T16:08:29.272Z,96.27
2023-04-24T16:10:56.812Z,98.75
2023-04-24T16:13:24.333Z,100.00
2023-04-24T16:15:52.146Z,100.00
2023-04-24T16:18:19.780Z,100.00
2023-04-24T16:20:47.296Z,100.00
2023-04-24T16:23:16.318Z,100.00
2023-04-24T16:25:43.886Z,100.00
2023-04-24T16:28:12.168Z,100.00
2023-04-24T16:30:40.396Z,100.00
2023-04-24T16:33:09.222Z,100.00
2023-04-24T16:35:40.674Z,100.00
2023-04-24T16:38:08.474Z,100.00
2023-04-24T16:40:37.670Z,100.00
2023-04-24T16:43:05.608Z,100.00
2023-04-24T16:45:33.173Z,100.00
2023-04-24T16:48:04.159Z,100.00
2023-04-24T16:50:31.968Z,100.00
2023-04-24T16:52:59.849Z,100.00
2023-04-24T16:55:27.574Z,100.00
2023-04-24T16:57:56.624Z,100.00
2023-04-24T17:00:24.260Z,100.00
2023-04-24T17:02:52.032Z,100.00
2023-04-24T17:05:21.530Z,100.00
2023-04-24T17:07:49.327Z,100.00
2023-04-24T17:10:17.494Z,100.00
2023-04-24T17:12:48.311Z,100.00
2023-04-24T17:15:20.052Z,100.00
2023-04-24T17:17:48.803Z,100.00
2023-04-24T17:20:22.942Z,100.00
2023-04-24T17:22:51.694Z,100.00
2023-04-24T17:25:21.823Z,100.00
2023-04-24T17:27:49.521Z,100.00
2023-04-24T17:30:18.704Z,100.00
2023-04-24T17:32:46.367Z,100.00
2023-04-24T17:35:16.884Z,100.00
2023-04-24T17:37:44.593Z,100.00
2023-04-24T17:59:19.015Z,100.00
2023-04-24T18:01:46.582Z,100.00
2023-04-24T18:04:14.440Z,100.00
2023-04-24T18:06:42.251Z,100.00
2023-04-24T18:09:10.715Z,100.00
2023-04-24T18:11:38.288Z,100.00
2023-04-24T18:14:05.885Z,100.00
2023-04-24T18:16:35.056Z,100.00
2023-04-24T18:19:02.788Z,100.00
2023-04-24T18:21:31.628Z,100.00
2023-04-24T18:24:00.476Z,100.00
2023-04-24T18:26:28.178Z,100.00
2023-04-24T18:28:56.248Z,100.00
2023-04-24T18:31:24.012Z,100.00
2023-04-24T18:33:54.173Z,100.00
2023-04-24T18:36:21.914Z,100.00
2023-04-24T18:38:49.693Z,100.00
2023-04-24T18:41:17.548Z,100.00
